Time;durP1;ratioP1;P1;durP2;ratioP2;P2;SDS_P1;SDS_P2;PMS_P1;PMS_P2;Temp;Humidity;BMP_temperature;BMP_pressure;BME280_temperature;BME280_humidity;BME280_pressure;Samples;Min_cycle;Max_cycle;Signal;HPM_P1;HPM_P2
2022/09/28 00:01:23;;;;;;;;;;;;;;;11.84;69.55;99143.97;5043996;28;19960;-74
2022/09/28 00:03:49;;;;;;;;;;;;;;;11.90;69.18;99148.88;5051360;28;20291;-73
2022/09/28 00:06:17;;;;;;;;;;;;;;;11.90;69.57;99156.66;5050481;28;19932;-74
2022/09/28 00:08:42;;;;;;;;;;;;;;;11.80;69.27;99160.69;5047749;28;20011;-74
2022/09/28 00:11:11;;;;;;;;;;;;;;;11.90;69.10;99161.88;5033595;28;20702;-74
2022/09/28 00:13:36;;;;;;;;;;;;;;;11.89;68.73;99160.22;5050850;28;19917;-74
2022/09/28 00:16:03;;;;;;;;;;;;;;;11.95;68.82;99160.72;5048867;28;19932;-75
2022/09/28 00:18:28;;;;;;;;;;;;;;;11.93;68.76;99161.72;5046946;28;20012;-75
2022/09/28 00:21:21;;;;;;;;;;;;;;;11.96;68.06;99159.81;5050793;28;19999;-75
2022/09/28 00:26:31;;;;;;;;;;;;;;;11.80;69.31;99163.28;5051731;28;19927;-75
2022/09/28 00:28:58;;;;;;;;;;;;;;;11.83;69.24;99157.94;5032649;28;20012;-75
2022/09/28 00:31:25;;;;;;;;;;;;;;;11.92;68.95;99150.47;5046918;28;19932;-75
2022/09/28 00:33:51;;;;;;;;;;;;;;;11.87;69.28;99156.81;5047966;28;19920;-75
2022/09/28 00:36:16;;;;;;;;;;;;;;;11.83;69.31;99156.13;5048014;28;20596;-75
2022/09/28 00:38:41;;;;;;;;;;;;;;;11.87;68.96;99155.06;5036791;28;19928;-76
2022/09/28 00:41:09;;;;;;;;;;;;;;;11.84;69.25;99157.84;5047997;28;19974;-76
2022/09/28 00:43:34;;;;;;;;;;;;;;;11.81;69.35;99155.38;5048697;28;19913;-76
2022/09/28 00:46:05;;;;;;;;;;;;;;;11.88;68.35;99150.72;5048052;28;20016;-75
2022/09/28 00:48:35;;;;;;;;;;;;;;;11.88;68.45;99155.91;5047360;28;19975;-75
2022/09/28 00:51:03;;;;;;;;;;;;;;;11.94;68.51;99153.00;5029548;28;19921;-76
2022/09/28 00:53:30;;;;;;;;;;;;;;;11.80;68.87;99148.50;5045913;28;19987;-75
2022/09/28 00:56:02;;;;;;;;;;;;;;;11.76;68.63;99147.00;5053566;28;19924;-75
2022/09/28 00:58:32;;;;;;;;;;;;;;;11.80;67.93;99145.06;5051361;28;19925;-75
2022/09/28 01:00:58;;;;;;;;;;;;;;;11.76;68.17;99140.94;5032643;28;19921;-75
2022/09/28 01:03:24;;;;;;;;;;;;;;;11.81;67.44;99142.38;5047827;28;19951;-75
2022/09/28 01:05:50;;;;;;;;;;;;;;;11.71;67.71;99143.75;5034431;28;19955;-75
2022/09/28 01:08:18;;;;;;;;;;;;;;;11.79;67.97;99141.63;5054730;28;20015;-75
2022/09/28 01:10:43;;;;;;;;;;;;;;;11.83;66.57;99126.72;5050918;28;19913;-75
2022/09/28 01:13:09;;;;;;;;;;;;;;;11.76;66.25;99125.34;5028538;28;20328;-76
2022/09/28 01:15:40;;;;;;;;;;;;;;;11.92;66.41;99127.03;5050623;28;20364;-75
2022/09/28 01:18:23;;;;;;;;;;;;;;;11.83;66.82;99121.50;5057449;28;20393;-75
2022/09/28 01:21:07;;;;;;;;;;;;;;;11.78;67.95;99126.94;5054164;28;20011;-76
2022/09/28 01:23:41;;;;;;;;;;;;;;;11.73;67.79;99131.53;5036171;28;20305;-75
2022/09/28 01:26:25;;;;;;;;;;;;;;;11.87;66.89;99129.06;5053724;28;19923;-76
2022/09/28 01:28:57;;;;;;;;;;;;;;;11.80;67.31;99122.47;5037071;28;19955;-75
2022/09/28 01:31:25;;;;;;;;;;;;;;;11.74;67.07;99128.00;5054337;28;19929;-75
2022/09/28 01:33:56;;;;;;;;;;;;;;;11.79;67.16;99122.56;5043199;28;19925;-75
2022/09/28 01:36:33;;;;;;;;;;;;;;;11.64;67.66;99125.97;5044887;28;19989;-76
2022/09/28 01:39:06;;;;;;;;;;;;;;;11.68;67.13;99123.09;5052511;28;19920;-76
2022/09/28 01:41:35;;;;;;;;;;;;;;;11.72;67.28;99121.19;5053403;28;19959;-73
2022/09/28 01:44:01;;;;;;;;;;;;;;;11.68;66.79;99115.31;5050363;28;19925;-76
2022/09/28 01:46:53;;;;;;;;;;;;;;;11.66;67.71;99119.75;5055821;28;19920;-76
2022/09/28 01:49:29;;;;;;;;;;;;;;;11.56;68.11;99119.38;5049748;28;19947;-76
2022/09/28 01:52:13;;;;;;;;;;;;;;;11.72;67.38;99121.19;5052904;28;19925;-76
2022/09/28 01:54:45;;;;;;;;;;;;;;;11.64;67.63;99116.41;5036214;28;20332;-76
2022/09/28 01:57:10;;;;;;;;;;;;;;;11.68;67.28;99117.91;5054545;28;20305;-76
2022/09/28 01:59:39;;;;;;;;;;;;;;;11.68;66.87;99117.91;5052853;28;19928;-76
2022/09/28 02:02:09;;;;;;;;;;;;;;;11.61;67.88;99113.13;5053002;28;19920;-76
2022/09/28 02:04:46;;;;;;;;;;;;;;;11.64;66.36;99113.81;5056065;28;20031;-76
2022/09/28 02:07:15;;;;;;;;;;;;;;;11.65;67.61;99106.84;5050553;28;20019;-76
2022/09/28 02:09:46;;;;;;;;;;;;;;;11.59;67.68;99107.16;5058177;28;19928;-76
2022/09/28 02:12:15;;;;;;;;;;;;;;;11.67;67.83;99110.19;5049979;28;19924;-76
2022/09/28 02:14:42;;;;;;;;;;;;;;;11.65;67.33;99114.66;5055158;28;19920;-76
2022/09/28 02:17:08;;;;;;;;;;;;;;;11.64;67.93;99115.56;5049735;28;20662;-76
2022/09/28 02:19:34;;;;;;;;;;;;;;;11.63;68.04;99119.06;5053862;28;19913;-76
2022/09/28 02:22:14;;;;;;;;;;;;;;;11.59;67.42;99117.56;5056386;28;19981;-76
2022/09/28 02:24:45;;;;;;;;;;;;;;;11.58;68.47;99119.31;5034096;28;19920;-76
2022/09/28 02:27:34;;;;;;;;;;;;;;;11.62;68.37;99120.00;5032951;28;19974;-76
2022/09/28 02:30:00;;;;;;;;;;;;;;;11.49;68.13;99115.44;5014357;28;20372;-76
2022/09/28 02:32:27;;;;;;;;;;;;;;;11.59;68.24;99113.22;5049252;28;19957;-76
2022/09/28 02:34:54;;;;;;;;;;;;;;;11.62;68.51;99122.59;5048202;28;19964;-76
2022/09/28 02:37:19;;;;;;;;;;;;;;;11.66;67.55;99118.91;5031850;28;19925;-76
2022/09/28 02:39:44;;;;;;;;;;;;;;;11.61;67.56;99121.75;5050236;28;19939;-76
2022/09/28 02:42:16;;;;;;;;;;;;;;;11.48;67.87;99124.13;5049309;28;20317;-76
2022/09/28 02:44:51;;;;;;;;;;;;;;;11.42;67.53;99111.44;5050361;28;19968;-76
2022/09/28 02:47:35;;;;;;;;;;;;;;;11.44;68.14;99109.59;5046515;28;20043;-76
2022/09/28 02:50:14;;;;;;;;;;;;;;;11.61;68.06;99123.50;5048844;28;19920;-76
2022/09/28 02:52:47;;;;;;;;;;;;;;;11.66;66.04;99117.16;5049704;28;19916;-76
2022/09/28 02:55:13;;;;;;;;;;;;;;;11.61;67.33;99118.31;5052323;28;19924;-76
2022/09/28 02:57:44;;;;;;;;;;;;;;;11.60;67.68;99120.06;5050022;28;20396;-76
2022/09/28 03:00:10;;;;;;;;;;;;;;;11.64;67.41;99123.34;5055032;28;19921;-76
2022/09/28 03:02:36;;;;;;;;;;;;;;;11.57;68.25;99128.03;5050538;28;19921;-76
2022/09/28 03:05:07;;;;;;;;;;;;;;;11.65;67.50;99118.06;5049798;28;19927;-76
2022/09/28 03:07:37;;;;;;;;;;;;;;;11.61;67.51;99123.50;5054158;28;20266;-75
2022/09/28 03:10:12;;;;;;;;;;;;;;;11.65;67.30;99128.47;5055946;28;19921;-76
2022/09/28 03:12:38;;;;;;;;;;;;;;;11.67;66.65;99128.41;5045354;28;19929;-76
2022/09/28 03:15:06;;;;;;;;;;;;;;;11.65;67.60;99130.25;5052283;28;19920;-76
2022/09/28 03:17:31;;;;;;;;;;;;;;;11.63;67.79;99132.91;5028088;28;19928;-76
2022/09/28 03:19:57;;;;;;;;;;;;;;;11.56;67.01;99127.19;5047738;28;19920;-75
2022/09/28 03:22:22;;;;;;;;;;;;;;;11.57;67.71;99130.63;5047479;28;20023;-76
2022/09/28 03:24:47;;;;;;;;;;;;;;;11.59;67.30;99136.63;5047716;28;19932;-76
2022/09/28 03:27:13;;;;;;;;;;;;;;;11.60;66.90;99125.28;5055432;28;20007;-76
2022/09/28 03:29:38;;;;;;;;;;;;;;;11.65;65.38;99125.88;5042343;28;19917;-76
2022/09/28 03:32:04;;;;;;;;;;;;;;;11.56;66.13;99119.38;4992742;28;19971;-76
2022/09/28 03:34:29;;;;;;;;;;;;;;;11.46;65.87;99133.78;5029925;28;20039;-76
2022/09/28 03:36:54;;;;;;;;;;;;;;;11.52;66.64;99128.28;5029936;28;19976;-76
2022/09/28 03:39:20;;;;;;;;;;;;;;;11.61;65.65;99120.91;5031124;28;19978;-76
2022/09/28 03:41:45;;;;;;;;;;;;;;;11.61;65.95;99123.50;5031858;28;19921;-76
2022/09/28 03:44:10;;;;;;;;;;;;;;;11.45;66.09;99131.25;5030224;28;19917;-76
2022/09/28 03:46:35;;;;;;;;;;;;;;;11.42;65.62;99132.25;5029646;28;19933;-76
2022/09/28 03:49:01;;;;;;;;;;;;;;;11.50;65.47;99121.47;5028936;28;19928;-76
2022/09/28 03:51:26;;;;;;;;;;;;;;;11.55;65.68;99120.31;5033571;28;19975;-76
2022/09/28 03:53:51;;;;;;;;;;;;;;;11.46;65.70;99131.19;5030748;28;19917;-76
2022/09/28 03:56:17;;;;;;;;;;;;;;;11.49;66.73;99123.22;5043724;28;19921;-76
2022/09/28 03:58:42;;;;;;;;;;;;;;;11.56;65.73;99126.38;5033057;28;19924;-76
2022/09/28 04:01:11;;;;;;;;;;;;;;;11.64;65.01;99125.97;5030498;28;19925;-76
2022/09/28 04:03:36;;;;;;;;;;;;;;;11.51;65.25;99129.19;5027722;28;19927;-76
2022/09/28 04:06:02;;;;;;;;;;;;;;;11.57;65.46;99133.22;5030438;28;20020;-76
2022/09/28 04:08:27;;;;;;;;;;;;;;;11.54;65.10;99133.38;5035135;28;20409;-76
2022/09/28 04:10:56;;;;;;;;;;;;;;;11.53;64.39;99127.34;5027983;28;19925;-75
2022/09/28 04:13:21;;;;;;;;;;;;;;;11.63;65.60;99125.13;5033765;28;19909;-76
2022/09/28 04:15:54;;;;;;;;;;;;;;;11.47;64.96;99135.44;5051281;28;20310;-76
2022/09/28 04:18:20;;;;;;;;;;;;;;;11.51;65.68;99129.19;5031777;28;19943;-76
2022/09/28 04:20:46;;;;;;;;;;;;;;;11.50;65.66;99130.09;5039813;28;20028;-76
2022/09/28 04:23:12;;;;;;;;;;;;;;;11.46;67.04;99133.78;5040719;28;19948;-76
2022/09/28 04:25:38;;;;;;;;;;;;;;;11.52;67.14;99127.44;5031035;28;19975;-76
2022/09/28 04:30:47;;;;;;;;;;;;;;;11.54;66.64;99134.22;5030992;28;19928;-76
2022/09/28 04:33:13;;;;;;;;;;;;;;;11.36;66.88;99142.09;5028618;28;20366;-74
2022/09/28 04:35:38;;;;;;;;;;;;;;;11.43;66.27;99143.50;5012273;28;19918;-74
2022/09/28 04:38:04;;;;;;;;;;;;;;;11.31;67.52;99144.94;5032010;28;19917;-73
2022/09/28 04:40:29;;;;;;;;;;;;;;;11.36;67.13;99142.94;5026167;28;19928;-74
2022/09/28 04:42:55;;;;;;;;;;;;;;;11.39;65.14;99136.75;5029892;28;19978;-74
2022/09/28 04:45:20;;;;;;;;;;;;;;;11.31;67.25;99146.69;5032581;28;19925;-74
2022/09/28 04:47:46;;;;;;;;;;;;;;;11.41;67.08;99148.75;5037350;28;20015;-74
2022/09/28 04:50:11;;;;;;;;;;;;;;;11.43;67.29;99144.34;5032850;28;19925;-74
2022/09/28 04:52:36;;;;;;;;;;;;;;;11.49;67.00;99145.78;5036805;28;19996;-74
2022/09/28 04:55:02;;;;;;;;;;;;;;;11.38;67.64;99145.50;5032652;28;20519;-74
2022/09/28 04:57:27;;;;;;;;;;;;;;;11.38;67.25;99145.50;5030582;28;19929;-74
2022/09/28 04:59:52;;;;;;;;;;;;;;;11.36;66.91;99149.91;5033195;28;20139;-73
2022/09/28 05:02:18;;;;;;;;;;;;;;;11.31;67.84;99154.50;5030662;28;19925;-74
2022/09/28 05:04:43;;;;;;;;;;;;;;;11.32;66.45;99151.84;5027946;28;19917;-74
2022/09/28 05:07:08;;;;;;;;;;;;;;;11.30;67.90;99148.47;5031958;28;20033;-74
2022/09/28 05:09:33;;;;;;;;;;;;;;;11.39;67.23;99157.56;5031904;28;19932;-74
2022/09/28 05:11:59;;;;;;;;;;;;;;;11.32;67.64;99158.78;5016324;28;20298;-74
2022/09/28 05:14:24;;;;;;;;;;;;;;;11.22;68.11;99162.72;5021566;28;19921;-74
2022/09/28 05:16:49;;;;;;;;;;;;;;;11.28;66.98;99160.69;5019403;28;19925;-75
2022/09/28 05:19:15;;;;;;;;;;;;;;;11.27;67.87;99158.13;5052733;28;20446;-74
2022/09/28 05:21:44;;;;;;;;;;;;;;;11.32;67.50;99162.25;5051569;28;19931;-74
2022/09/28 05:24:10;;;;;;;;;;;;;;;11.25;67.55;99159.97;5041708;28;19921;-74
2022/09/28 05:26:35;;;;;;;;;;;;;;;11.27;66.76;99164.16;5031719;28;19947;-74
2022/09/28 05:29:03;;;;;;;;;;;;;;;11.34;66.46;99163.00;5032251;28;19927;-74
2022/09/28 05:31:29;;;;;;;;;;;;;;;11.38;66.59;99161.09;5038545;28;20397;-74
2022/09/28 05:33:54;;;;;;;;;;;;;;;11.31;67.44;99165.75;5030266;28;19963;-74
2022/09/28 05:36:19;;;;;;;;;;;;;;;11.34;66.54;99164.75;5027909;28;19933;-74
2022/09/28 05:38:45;;;;;;;;;;;;;;;11.44;66.25;99161.59;5029124;28;19921;-74
2022/09/28 05:41:11;;;;;;;;;;;;;;;11.46;66.90;99166.75;5031274;28;19947;-73
2022/09/28 05:43:37;;;;;;;;;;;;;;;11.51;65.85;99167.34;5034055;28;19920;-74
2022/09/28 05:46:02;;;;;;;;;;;;;;;11.43;66.04;99154.75;5030729;28;19975;-74
2022/09/28 05:48:28;;;;;;;;;;;;;;;11.54;65.61;99162.00;5028187;28;20570;-75
2022/09/28 05:50:54;;;;;;;;;;;;;;;11.37;66.27;99156.78;5029735;28;20336;-74
2022/09/28 05:53:19;;;;;;;;;;;;;;;11.41;66.75;99166.13;5028433;28;20354;-74
2022/09/28 05:55:44;;;;;;;;;;;;;;;11.35;65.98;99164.69;5029027;28;19921;-74
2022/09/28 05:58:10;;;;;;;;;;;;;;;11.31;66.57;99162.31;5020641;28;19928;-75
2022/09/28 06:00:35;;;;;;;;;;;;;;;11.25;66.43;99159.97;5032964;28;20024;-74
2022/09/28 06:03:03;;;;;;;;;;;;;;;11.29;66.25;99165.00;5034561;28;20290;-76
2022/09/28 06:05:28;;;;;;;;;;;;;;;11.31;67.01;99163.16;5032932;28;19921;-74
2022/09/28 06:07:54;;;;;;;;;;;;;;;11.35;66.34;99158.66;5031339;28;19925;-74
2022/09/28 06:10:19;;;;;;;;;;;;;;;11.45;66.45;99165.91;5033957;28;19932;-74
2022/09/28 06:12:46;;;;;;;;;;;;;;;11.47;65.14;99164.06;5034120;28;19920;-74
2022/09/28 06:15:12;;;;;;;;;;;;;;;11.47;65.18;99161.44;5029675;28;19925;-74
2022/09/28 06:17:37;;;;;;;;;;;;;;;11.48;64.80;99170.09;5031008;28;19948;-74
2022/09/28 06:20:02;;;;;;;;;;;;;;;11.49;65.41;99166.59;5029015;28;19947;-74
2022/09/28 06:22:27;;;;;;;;;;;;;;;11.50;65.18;99166.50;5029685;28;20001;-73
2022/09/28 06:24:53;;;;;;;;;;;;;;;11.39;67.15;99175.75;5037914;28;20023;-74
2022/09/28 06:27:18;;;;;;;;;;;;;;;11.43;65.77;99167.75;5030473;28;19921;-74
2022/09/28 06:29:45;;;;;;;;;;;;;;;11.45;66.26;99178.03;5028277;28;20023;-74
2022/09/28 06:32:12;;;;;;;;;;;;;;;11.36;64.94;99171.56;5030953;28;19925;-74
2022/09/28 06:34:37;;;;;;;;;;;;;;;11.38;65.31;99184.50;5029031;28;19917;-74
2022/09/28 06:37:03;;;;;;;;;;;;;;;11.51;64.50;99185.53;5028235;28;20400;-74
2022/09/28 06:39:28;;;;;;;;;;;;;;;11.43;66.40;99191.13;5029489;28;19979;-74
2022/09/28 06:41:54;;;;;;;;;;;;;;;11.45;65.56;99189.28;5031817;28;20008;-74
2022/09/28 06:44:19;;;;;;;;;;;;;;;11.51;65.00;99195.94;5030539;28;19917;-74
2022/09/28 06:46:44;;;;;;;;;;;;;;;11.24;64.78;99198.09;5018410;28;20405;-74
2022/09/28 06:49:10;;;;;;;;;;;;;;;11.38;65.79;99202.69;5029861;28;19921;-74
2022/09/28 06:51:35;;;;;;;;;;;;;;;11.19;65.95;99207.03;5028300;28;20008;-74
2022/09/28 06:54:01;;;;;;;;;;;;;;;11.44;64.06;99200.59;5027816;28;19976;-74
2022/09/28 06:56:27;;;;;;;;;;;;;;;11.44;64.06;99202.38;5028604;28;19931;-74
2022/09/28 06:58:52;;;;;;;;;;;;;;;11.35;65.64;99206.28;5029813;28;19913;-74
2022/09/28 07:01:17;;;;;;;;;;;;;;;11.50;65.21;99202.91;5030786;28;20376;-74
2022/09/28 07:03:43;;;;;;;;;;;;;;;11.47;65.11;99208.25;5029256;28;19921;-74
2022/09/28 07:06:10;;;;;;;;;;;;;;;11.46;63.88;99206.59;5027904;28;19956;-74
2022/09/28 07:08:35;;;;;;;;;;;;;;;11.54;63.24;99209.66;5029418;28;19925;-74
2022/09/28 07:11:04;;;;;;;;;;;;;;;11.49;63.54;99213.41;5031093;28;19971;-74
2022/09/28 07:13:29;;;;;;;;;;;;;;;11.53;64.82;99217.53;5033468;28;19913;-74
2022/09/28 07:15:55;;;;;;;;;;;;;;;11.47;63.93;99218.66;5030058;28;19917;-74
2022/09/28 07:18:20;;;;;;;;;;;;;;;11.59;63.77;99219.00;5029532;28;19921;-74
2022/09/28 07:20:45;;;;;;;;;;;;;;;11.46;64.82;99227.41;5032187;28;19921;-74
2022/09/28 07:23:11;;;;;;;;;;;;;;;11.50;63.50;99223.72;5029096;28;19980;-74
2022/09/28 07:25:37;;;;;;;;;;;;;;;11.47;64.43;99229.06;5031242;28;19990;-74
2022/09/28 07:28:03;;;;;;;;;;;;;;;11.47;62.98;99229.06;5029151;28;19929;-74
2022/09/28 07:30:32;;;;;;;;;;;;;;;11.46;63.66;99230.00;5027341;28;19944;-74
2022/09/28 07:32:58;;;;;;;;;;;;;;;11.33;62.89;99239.28;5029515;28;20259;-74
2022/09/28 07:35:23;;;;;;;;;;;;;;;11.60;63.89;99236.25;5030330;28;19921;-74
2022/09/28 07:37:55;;;;;;;;;;;;;;;11.59;63.18;99238.03;5025311;28;19968;-74
2022/09/28 07:43:07;;;;;;;;;;;;;;;11.74;63.99;99242.47;5028449;28;20012;-74
2022/09/28 07:45:37;;;;;;;;;;;;;;;11.66;64.26;99251.56;5028616;28;20044;-74
2022/09/28 07:48:02;;;;;;;;;;;;;;;11.54;63.18;99255.59;5029504;28;19975;-74
2022/09/28 07:50:28;;;;;;;;;;;;;;;11.65;63.48;99263.72;5029091;28;19932;-74
2022/09/28 07:52:57;;;;;;;;;;;;;;;11.67;63.38;99255.84;5024926;28;19917;-74
2022/09/28 07:55:22;;;;;;;;;;;;;;;11.73;62.83;99266.81;5037884;28;19910;-74
2022/09/28 07:57:55;;;;;;;;;;;;;;;11.83;63.11;99267.19;5026979;28;19929;-74
2022/09/28 08:00:22;;;;;;;;;;;;;;;11.72;63.47;99274.66;5032477;28;20212;-74
2022/09/28 08:02:47;;;;;;;;;;;;;;;11.67;61.81;99266.25;5027663;28;20384;-74
2022/09/28 08:05:12;;;;;;;;;;;;;;;11.67;62.57;99272.31;5029798;28;19917;-74
2022/09/28 08:07:38;;;;;;;;;;;;;;;11.75;64.52;99279.72;5010575;28;19955;-74
2022/09/28 08:10:04;;;;;;;;;;;;;;;11.87;63.09;99279.13;5015955;28;19975;-74
2022/09/28 08:12:29;;;;;;;;;;;;;;;11.90;61.71;99269.41;5035866;28;19963;-74
2022/09/28 08:14:54;;;;;;;;;;;;;;;11.89;61.78;99275.50;5023831;28;19935;-74
2022/09/28 08:17:20;;;;;;;;;;;;;;;11.84;63.75;99285.31;5028755;28;19925;-74
2022/09/28 08:22:31;;;;;;;;;;;;;;;11.85;62.97;99280.97;5025729;28;20185;-74
2022/09/28 08:24:56;;;;;;;;;;;;;;;11.84;62.61;99281.88;5031716;28;20012;-74
2022/09/28 08:27:21;;;;;;;;;;;;;;;11.75;62.27;99280.56;5030313;28;20438;-74
2022/09/28 08:29:47;;;;;;;;;;;;;;;11.87;63.20;99289.53;5042400;28;19927;-74
2022/09/28 08:32:13;;;;;;;;;;;;;;;11.93;61.62;99282.25;5039402;28;19917;-74
2022/09/28 08:34:39;;;;;;;;;;;;;;;12.06;61.26;99287.69;5015756;28;20302;-74
2022/09/28 08:37:06;;;;;;;;;;;;;;;11.83;61.13;99291.44;5046670;28;19921;-74
2022/09/28 08:39:33;;;;;;;;;;;;;;;11.87;61.77;99289.53;5045447;28;20332;-74
2022/09/28 08:42:16;;;;;;;;;;;;;;;11.81;61.87;99293.28;5044993;28;19986;-74
2022/09/28 08:44:44;;;;;;;;;;;;;;;11.90;62.65;99294.59;5048456;28;19921;-74
2022/09/28 08:50:16;;;;;;;;;;;;;;;11.92;61.64;99303.13;5053493;28;19942;-74
2022/09/28 08:52:44;;;;;;;;;;;;;;;12.05;61.73;99307.69;5052969;28;19974;-74
2022/09/28 08:55:14;;;;;;;;;;;;;;;12.02;62.31;99293.97;5051224;28;19933;-74
2022/09/28 08:57:44;;;;;;;;;;;;;;;12.10;60.27;99297.03;5059038;28;20413;-74
2022/09/28 09:00:20;;;;;;;;;;;;;;;12.14;61.46;99298.56;5049143;28;20007;-74
2022/09/28 09:02:46;;;;;;;;;;;;;;;12.19;62.92;99301.75;5050847;28;20408;-75
2022/09/28 09:05:13;;;;;;;;;;;;;;;12.25;62.65;99301.44;5046789;28;20009;-74
2022/09/28 09:07:54;;;;;;;;;;;;;;;12.15;59.67;99304.63;5028351;28;20018;-74
2022/09/28 09:10:38;;;;;;;;;;;;;;;12.01;60.01;99313.09;5049062;28;19940;-74
2022/09/28 09:13:11;;;;;;;;;;;;;;;12.13;60.30;99303.84;5029913;28;19943;-74
2022/09/28 09:15:37;;;;;;;;;;;;;;;12.22;60.54;99308.56;5049874;28;19959;-74
2022/09/28 09:18:21;;;;;;;;;;;;;;;12.09;60.27;99314.44;5048859;28;19993;-74
2022/09/28 09:20:57;;;;;;;;;;;;;;;11.91;59.88;99317.09;5053902;28;19968;-74
2022/09/28 09:23:23;;;;;;;;;;;;;;;12.25;60.19;99316.22;5027010;28;20393;-74
2022/09/28 09:25:52;;;;;;;;;;;;;;;12.31;61.60;99321.13;5045322;28;19962;-74
2022/09/28 09:28:37;;;;;;;;;;;;;;;12.30;59.40;99319.47;5048154;28;19913;-74
2022/09/28 09:31:02;;;;;;;;;;;;;;;12.40;60.63;99318.06;5046908;28;19967;-74
2022/09/28 09:33:30;;;;;;;;;;;;;;;12.32;60.54;99325.41;5050035;28;19925;-74
2022/09/28 09:35:57;;;;;;;;;;;;;;;12.28;57.85;99323.88;5033415;28;20368;-74
2022/09/28 09:38:42;;;;;;;;;;;;;;;12.43;59.31;99323.94;5055793;28;20011;-74
2022/09/28 09:41:15;;;;;;;;;;;;;;;12.32;59.38;99331.47;5009241;28;20400;-74
2022/09/28 09:43:40;;;;;;;;;;;;;;;12.35;59.38;99330.47;5053818;28;20340;-74
2022/09/28 09:46:17;;;;;;;;;;;;;;;12.19;59.68;99335.59;5053726;28;19999;-74
2022/09/28 09:49:12;;;;;;;;;;;;;;;12.24;58.61;99332.78;5033677;28;19925;-74
2022/09/28 09:51:53;;;;;;;;;;;;;;;12.23;58.31;99331.94;4942929;28;19927;-74
2022/09/28 09:54:25;;;;;;;;;;;;;;;12.35;58.97;99323.50;5028863;28;20020;-74
2022/09/28 09:56:56;;;;;;;;;;;;;;;12.49;58.17;99326.25;5027887;28;19925;-74
2022/09/28 09:59:25;;;;;;;;;;;;;;;12.47;57.96;99322.88;5031077;28;19921;-74
2022/09/28 10:01:51;;;;;;;;;;;;;;;12.69;58.72;99334.84;5027596;28;20414;-74
2022/09/28 10:04:19;;;;;;;;;;;;;;;12.45;56.55;99326.50;5029846;28;19943;-74
2022/09/28 10:06:46;;;;;;;;;;;;;;;12.50;57.29;99337.50;5030507;28;20024;-74
2022/09/28 10:09:15;;;;;;;;;;;;;;;12.50;56.39;99325.34;5030559;28;19960;-74
2022/09/28 10:11:44;;;;;;;;;;;;;;;12.59;58.18;99337.91;5032238;28;20166;-74
2022/09/28 10:14:20;;;;;;;;;;;;;;;12.62;56.71;99332.53;5031628;28;20382;-74
2022/09/28 10:16:47;;;;;;;;;;;;;;;12.56;55.91;99332.88;5034390;28;20020;-74
2022/09/28 10:19:13;;;;;;;;;;;;;;;12.48;56.89;99332.34;5029037;28;20561;-73
2022/09/28 10:21:40;;;;;;;;;;;;;;;12.47;56.34;99324.63;5029206;28;19921;-74
2022/09/28 10:24:10;;;;;;;;;;;;;;;12.57;57.16;99334.53;5014370;28;19956;-74
2022/09/28 10:26:38;;;;;;;;;;;;;;;12.47;56.19;99333.31;5026734;28;20008;-74
2022/09/28 10:29:05;;;;;;;;;;;;;;;12.22;57.47;99337.22;5032341;28;19918;-74
2022/09/28 10:31:36;;;;;;;;;;;;;;;12.47;56.72;99340.28;5030535;28;20309;-74
2022/09/28 10:34:01;;;;;;;;;;;;;;;12.48;56.94;99342.78;5028821;28;20444;-73
2022/09/28 10:36:27;;;;;;;;;;;;;;;12.33;56.55;99334.94;5022115;28;19925;-74
2022/09/28 10:38:53;;;;;;;;;;;;;;;12.49;57.03;99344.47;5030958;28;20343;-74
2022/09/28 10:41:20;;;;;;;;;;;;;;;12.64;55.16;99341.13;5031446;28;19929;-74
2022/09/28 10:44:05;;;;;;;;;;;;;;;12.54;56.16;99339.06;5037461;28;20340;-74
2022/09/28 10:46:31;;;;;;;;;;;;;;;12.45;56.17;99345.53;5038321;28;20063;-74
2022/09/28 10:48:57;;;;;;;;;;;;;;;12.65;55.28;99344.56;5047796;28;19921;-74
2022/09/28 10:51:42;;;;;;;;;;;;;;;12.56;56.60;99345.03;5048573;28;20373;-74
2022/09/28 10:54:13;;;;;;;;;;;;;;;12.49;56.34;99339.25;5051128;28;19944;-74
2022/09/28 10:56:39;;;;;;;;;;;;;;;12.43;56.06;99346.53;5040270;28;19941;-74
2022/09/28 10:59:23;;;;;;;;;;;;;;;12.54;56.68;99344.28;5021984;28;19939;-73
2022/09/28 11:01:52;;;;;;;;;;;;;;;12.60;56.23;99350.00;5026826;28;19917;-74
2022/09/28 11:04:20;;;;;;;;;;;;;;;12.68;56.06;99346.16;5029716;28;19921;-74
2022/09/28 11:06:46;;;;;;;;;;;;;;;12.62;56.79;99349.94;5013000;28;19952;-74
2022/09/28 11:09:37;;;;;;;;;;;;;;;12.55;55.44;99345.94;5032098;28;19921;-74
2022/09/28 11:12:05;;;;;;;;;;;;;;;12.43;57.42;99352.59;5023022;28;19921;-74
2022/09/28 11:14:34;;;;;;;;;;;;;;;12.57;57.40;99347.56;5036322;28;19936;-74
2022/09/28 11:17:15;;;;;;;;;;;;;;;12.65;56.53;99347.16;5023087;28;19917;-74
2022/09/28 11:19:41;;;;;;;;;;;;;;;12.87;56.43;99334.69;5018752;28;20345;-74
2022/09/28 11:22:25;;;;;;;;;;;;;;;12.94;56.34;99343.03;5028631;28;19921;-74
2022/09/28 11:24:50;;;;;;;;;;;;;;;12.95;55.00;99336.91;5034429;28;20401;-74
2022/09/28 11:27:24;;;;;;;;;;;;;;;12.94;54.59;99335.22;5043260;28;19992;-74
2022/09/28 11:29:54;;;;;;;;;;;;;;;12.83;53.48;99335.78;5035622;28;19968;-73
2022/09/28 11:32:21;;;;;;;;;;;;;;;13.04;54.88;99334.66;5028442;28;19962;-74
2022/09/28 11:34:49;;;;;;;;;;;;;;;12.98;54.25;99337.59;5028599;28;19924;-74
2022/09/28 11:37:17;;;;;;;;;;;;;;;12.97;53.85;99340.25;5049918;28;20413;-74
2022/09/28 11:39:48;;;;;;;;;;;;;;;13.08;54.80;99328.31;5035746;28;19923;-74
2022/09/28 11:42:28;;;;;;;;;;;;;;;13.13;55.00;99339.38;5044193;28;20411;-73
2022/09/28 11:45:08;;;;;;;;;;;;;;;13.21;54.68;99331.97;5048475;28;19924;-73
2022/09/28 11:47:33;;;;;;;;;;;;;;;13.17;53.66;99335.66;5049229;28;20294;-73
2022/09/28 11:50:14;;;;;;;;;;;;;;;13.22;54.98;99340.63;5047515;28;19921;-74
2022/09/28 11:52:46;;;;;;;;;;;;;;;13.21;55.28;99341.56;5045367;28;19928;-74
2022/09/28 11:55:28;;;;;;;;;;;;;;;13.02;54.62;99344.28;5047821;28;19929;-74
2022/09/28 11:58:02;;;;;;;;;;;;;;;13.12;54.88;99342.91;5039570;28;19925;-74
2022/09/28 12:00:29;;;;;;;;;;;;;;;13.17;56.83;99348.69;5047419;28;19925;-74
2022/09/28 12:03:02;;;;;;;;;;;;;;;13.16;55.40;99340.97;5043448;28;19928;-74
2022/09/28 12:05:31;;;;;;;;;;;;;;;13.16;57.00;99346.19;5050904;28;20007;-74
2022/09/28 12:08:16;;;;;;;;;;;;;;;13.22;56.80;99349.28;5047955;28;19967;-74
2022/09/28 12:10:47;;;;;;;;;;;;;;;13.26;54.38;99346.50;5047653;28;19921;-74
2022/09/28 12:13:12;;;;;;;;;;;;;;;13.28;55.65;99353.34;5045268;28;19920;-74
2022/09/28 12:15:37;;;;;;;;;;;;;;;13.25;54.51;99344.84;5048719;28;20316;-73
2022/09/28 12:18:05;;;;;;;;;;;;;;;13.24;55.35;99354.44;5041798;28;19982;-73
2022/09/28 12:20:30;;;;;;;;;;;;;;;13.25;55.84;99350.91;5050174;28;19927;-74
2022/09/28 12:22:58;;;;;;;;;;;;;;;13.25;54.85;99347.44;5050122;28;19916;-74
2022/09/28 12:25:24;;;;;;;;;;;;;;;13.22;56.31;99351.88;5054698;28;20002;-74
2022/09/28 12:27:50;;;;;;;;;;;;;;;13.15;54.29;99341.88;5047535;28;19924;-74
2022/09/28 12:30:19;;;;;;;;;;;;;;;13.25;54.49;99339.63;5048325;28;20412;-74
2022/09/28 12:32:50;;;;;;;;;;;;;;;13.26;55.24;99344.75;5043444;28;20007;-74
2022/09/28 12:35:34;;;;;;;;;;;;;;;13.22;55.40;99348.47;5046500;28;19917;-74
2022/09/28 12:37:59;;;;;;;;;;;;;;;13.14;54.47;99341.03;5048391;28;19978;-74
2022/09/28 12:40:44;;;;;;;;;;;;;;;13.27;54.47;99341.22;5026711;28;19928;-74
2022/09/28 12:43:16;;;;;;;;;;;;;;;13.29;56.48;99349.78;5044368;28;19921;-74
2022/09/28 12:46:00;;;;;;;;;;;;;;;13.32;57.63;99352.22;5042340;28;20059;-74
2022/09/28 12:48:38;;;;;;;;;;;;;;;13.29;57.68;99347.19;5051832;28;19926;-74
2022/09/28 12:51:09;;;;;;;;;;;;;;;13.27;55.52;99348.19;5047454;28;19983;-74
2022/09/28 12:53:36;;;;;;;;;;;;;;;13.22;55.35;99343.25;5044834;28;20465;-74
2022/09/28 12:56:03;;;;;;;;;;;;;;;13.26;55.83;99342.13;5046577;28;19916;-74
2022/09/28 12:58:37;;;;;;;;;;;;;;;13.31;55.52;99344.50;5047887;28;20446;-74
2022/09/28 13:01:09;;;;;;;;;;;;;;;13.28;55.80;99340.31;5049979;28;19936;-74
2022/09/28 13:03:34;;;;;;;;;;;;;;;13.27;55.56;99346.44;5048302;28;19928;-74
2022/09/28 13:06:15;;;;;;;;;;;;;;;13.25;56.68;99343.09;5046713;28;19920;-74
2022/09/28 13:08:46;;;;;;;;;;;;;;;13.20;56.65;99340.72;5049392;28;19927;-74
2022/09/28 13:11:21;;;;;;;;;;;;;;;13.29;58.06;99347.19;5051395;28;20707;-74